• Join FlightAware (Why Join?)
  • Login
  • US Flag 
12:54PM EST


 

Airport Tracker/Info


-or-


 

Live Flight TrackerFlight Track Log ✈ UAL70 ✈ 18-Apr-2013 ✈ KEWR - EHAM / AMS

Flight Track Log - Related Links

Times and Time Zones

All times are in EDT time to prevent confusion due to time zone crossing. See the UAL70 flight status page for this flight to view local times or setup timezone preferences in your user account.

Time Position Orientation Groundspeed Altitude Reporting Facility
EDT Latitude Longitude Course Direction KTS MPH feet Rate Location/Type
07:21PM 40.6390 -74.1920 200° South 190 219 1,800  Level FlightAware
07:22PM 40.6160 -74.2150 217° Southwest 226 260 2,800 2,100 Climbing FlightAware
07:22PM 40.6130 -74.2290 254° West 239 275 3,200 2,520 Climbing FlightAware
07:22PM 40.6260 -74.2720 292° West 274 315 4,500 2,640 Climbing FlightAware
07:23PM 40.6420 -74.2830 332° Northwest 289 333 5,200 2,400 Climbing FlightAware
07:23PM 40.6560 -74.2870 348° North 301 346 5,500 1,920 Climbing FlightAware
07:23PM 40.6960 -74.2680 20° North 317 365 6,500 2,520 Climbing FlightAware
07:23PM 40.7080 -74.2480 52° Northeast 305 351 7,400 3,180 Climbing FlightAware
07:24PM 40.7220 -74.1950 71° East 307 353 8,900 2,400 Climbing FlightAware
07:24PM 40.7320 -74.1480 74° East 319 367 9,600 840 Climbing FlightAware
07:25PM 40.7450 -74.0930 73° East 317 365 9,700 240 Climbing FlightAware
07:25PM 40.7517 -74.0609 75° East 313 360 9,800 120 Climbing FlightAware ADS-B
07:25PM 40.7598 -74.0245 74° East 311 358 9,800  Level FlightAware ADS-B
07:26PM 40.7665 -73.9950 73° East 312 359 9,800  Level FlightAware ADS-B
07:26PM 40.7800 -73.9380 73° East 314 361 9,800  Level FlightAware
07:27PM 40.7900 -73.8900 75° East 313 360 9,800 -120 Level FlightAware
07:27PM 40.8060 -73.8390 67° East 316 364 9,700  Descending FlightAware
07:27PM 40.8220 -73.8190 43° Northeast 316 364 9,800 240 Climbing FlightAware
07:28PM 40.8350 -73.8060 37° Northeast 319 367 9,800 960 Level FlightAware
07:28PM 40.8900 -73.7490 38° Northeast 357 411 10,700 1,200 Climbing FlightAware
07:29PM 40.9400 -73.6890 42° Northeast 394 453 11,500 660 Climbing FlightAware
07:30PM 40.9960 -73.6190 43° Northeast 399 459 11,700 1,200 Climbing FlightAware
07:30PM 41.0410 -73.5620 44° Northeast 403 464 13,100 2,460 Climbing FlightAware
07:31PM 41.1080 -73.4790 43° Northeast 418 481 15,000 2,280 Climbing FlightAware
07:32PM 41.1710 -73.4000 43° Northeast 428 493 16,600 2,100 Climbing FlightAware
07:32PM 41.2180 -73.3400 44° Northeast 427 491 17,800 2,040 Climbing FlightAware
07:33PM 41.2990 -73.2380 43° Northeast 444 511 19,500 1,980 Climbing FlightAware
07:34PM 41.1850 -73.3820 224° Southwest 451 519 21,000 1,800 Climbing FlightAware
07:35PM 41.3990 -73.0880 46° Northeast 451 519 21,800 1,800 Climbing FlightAware
07:35PM 41.4410 -72.9930 59° Northeast 455 524 23,100 900 Climbing FlightAware
07:36PM 41.4870 -72.8930 58° Northeast 455 524 23,100 1,440 Level FlightAware
07:37PM 41.5330 -72.7820 61° Northeast 470 541 25,200 2,220 Climbing FlightAware
07:37PM 41.5870 -72.6610 59° Northeast 481 554 26,300 1,200 Climbing FlightAware
07:38PM 41.2680 -73.2780 236° Southwest 27,100 1,080 Climbing FlightAware
07:39PM 41.6900 -72.4270 56° Northeast 499 574 28,000 1,140 Climbing FlightAware
07:40PM 41.7560 -72.2820 59° Northeast 510 587 29,000 1,320 Climbing FlightAware
07:40PM 41.8020 -72.1800 59° Northeast 504 580 30,100 1,800 Climbing FlightAware
07:41PM 41.8580 -72.0540 59° Northeast 494 568 31,600 1,620 Climbing FlightAware
07:42PM 41.9090 -71.9400 59° Northeast 492 566 32,600 1,320 Climbing FlightAware
07:43PM 41.9560 -71.8380 58° Northeast 489 563 33,500 1,260 Climbing FlightAware
07:43PM 42.0160 -71.7260 54° Northeast 487 560 34,400 1,020 Climbing FlightAware
07:44PM 42.0720 -71.6250 53° Northeast 478 550 35,000 420 Climbing FlightAware
07:45PM 42.1240 -71.5290 54° Northeast 470 541 35,000  Level FlightAware
07:45PM 42.1810 -71.4230 54° Northeast 469 540 35,000  Level FlightAware
07:46PM 42.2340 -71.3260 54° Northeast 470 541 35,000  Level FlightAware
07:47PM 42.2860 -71.2310 53° Northeast 471 542 35,000  Level FlightAware
07:48PM 42.3440 -71.1230 54° Northeast 473 544 35,000  Level FlightAware
07:48PM 42.3920 -71.0340 54° Northeast 475 547 35,000  Level FlightAware
07:49PM 42.4550 -70.9160 54° Northeast 476 548 35,000  Level FlightAware
07:50PM 42.5060 -70.8190 54° Northeast 476 548 35,000  Level FlightAware
07:50PM 42.5580 -70.7210 54° Northeast 477 549 35,000  Level FlightAware
07:51PM 42.6170 -70.6110 54° Northeast 477 549 35,000  Level FlightAware
07:52PM 42.6690 -70.5120 54° Northeast 476 548 35,000  Level FlightAware
07:52PM 42.7270 -70.4020 54° Northeast 477 549 35,000  Level FlightAware
07:53PM 42.7790 -70.3030 54° Northeast 477 549 35,000  Level FlightAware
07:54PM 42.8300 -70.2050 55° Northeast 481 554 35,000  Level FlightAware
07:55PM 42.8890 -70.0900 55° Northeast 479 551 35,000  Level FlightAware
07:55PM 42.9360 -70.0010 54° Northeast 479 551 35,000  Level FlightAware
07:56PM 42.9990 -69.8790 55° Northeast 478 550 35,000  Level FlightAware
07:57PM 43.0480 -69.7830 55° Northeast 478 550 35,000  Level FlightAware
07:57PM 43.0920 -69.6970 55° Northeast 477 549 35,000  Level FlightAware
07:58PM 43.1410 -69.6020 55° Northeast 476 548 35,000  Level FlightAware
07:59PM 43.2060 -69.4740 55° Northeast 477 549 35,000  Level FlightAware
07:59PM 43.2470 -69.3930 55° Northeast 478 550 35,000  Level FlightAware
08:00PM 43.3030 -69.2820 55° Northeast 480 552 35,000  Level FlightAware
08:01PM 43.3780 -69.1340 55° Northeast 481 554 35,000  Level FlightAware
08:02PM 43.4330 -69.0250 55° Northeast 481 554 35,000  Level FlightAware
08:03PM 43.5130 -68.8650 55° Northeast 483 556 35,000  Level FlightAware
08:04PM 43.5670 -68.7580 55° Northeast 483 556 35,000  Level FlightAware
08:04PM 43.6110 -68.6720 55° Northeast 483 556 35,000  Level FlightAware
08:05PM 43.6960 -68.4940 57° Northeast 485 558 35,000  Level FlightAware
08:06PM 43.7390 -68.4080 55° Northeast 485 558 35,000  Level FlightAware
08:07PM 43.8230 -68.2350 56° Northeast 489 563 35,000  Level FlightAware
08:07PM 43.8690 -68.1400 56° Northeast 490 564 35,000  Level FlightAware
08:08PM 43.9310 -68.0110 56° Northeast 490 564 35,000  Level FlightAware
08:09PM 43.9760 -67.9190 56° Northeast 489 563 35,000  Level FlightAware
08:10PM 44.0380 -67.7880 57° Northeast 489 563 35,000  Level FlightAware
08:10PM 44.0760 -67.7090 56° Northeast 484 557 35,000  Level FlightAware
08:11PM 44.1390 -67.5790 56° Northeast 484 557 35,000  Level FlightAware
08:12PM 44.1940 -67.4620 57° Northeast 485 558 35,000  Level FlightAware
08:12PM 44.2380 -67.3690 57° Northeast 485 558 35,000  Level FlightAware
08:13PM 44.3000 -67.2390 56° Northeast 483 556 35,000  Level FlightAware
08:14PM 44.3680 -67.0940 57° Northeast 484 557 35,000  Level FlightAware
08:15PM 44.4200 -66.9890 55° Northeast 479 551 35,000  Level FlightAware
08:16PM 44.4860 -66.8850 48° Northeast 479 551 35,000  Level FlightAware
08:16PM 44.5680 -66.7610 47° Northeast 475 547 35,000  Level FlightAware
08:17PM 44.6290 -66.6680 47° Northeast 480 552 35,000  Level FlightAware
08:18PM 44.6880 -66.5790 47° Northeast 479 551 35,000  Level FlightAware
08:19PM 44.7570 -66.4740 47° Northeast 479 551 35,000  Level FlightAware
08:19PM 44.8160 -66.3830 48° Northeast 478 550 35,000  Level FlightAware
08:20PM 44.8970 -66.2580 48° Northeast 477 549 35,000  Level FlightAware
08:21PM 44.9580 -66.1650 47° Northeast 477 549 35,000  Level FlightAware
08:22PM 45.0240 -66.0620 48° Northeast 477 549 35,000  Level FlightAware
08:23PM 45.1820 -65.8160 48° Northeast 477 549 35,000  Level FlightAware
08:25PM 45.2850 -65.6550 48° Northeast 476 548 35,000  Level FlightAware
08:26PM 45.3950 -65.4810 48° Northeast 470 541 35,000  Level FlightAware
08:27PM 45.5040 -65.3090 48° Northeast 474 545 35,000  Level FlightAware
08:28PM 45.5640 -65.2130 48° Northeast 474 545 35,000  Level FlightAware
08:28PM 45.6220 -65.1200 48° Northeast 475 547 35,000  Level FlightAware
08:29PM 45.6830 -65.0220 48° Northeast 475 547 35,000  Level FlightAware
08:30PM 45.7420 -64.9270 48° Northeast 475 547 35,000  Level FlightAware
08:31PM 45.8160 -64.8070 48° Northeast 477 549 35,000  Level FlightAware
08:31PM 45.8900 -64.6870 48° Northeast 476 548 35,000  Level FlightAware
08:32PM 45.9380 -64.6090 48° Northeast 476 548 35,000  Level FlightAware
08:33PM 45.9980 -64.5130 48° Northeast 476 548 35,000  Level FlightAware
08:33PM 46.0480 -64.4330 48° Northeast 476 548 35,000  Level FlightAware
08:34PM 46.1300 -64.2930 50° Northeast 476 548 35,000  Level FlightAware
08:35PM 46.1880 -64.2010 48° Northeast 476 548 35,000  Level FlightAware
08:36PM 46.2380 -64.1200 48° Northeast 476 548 35,000  Level FlightAware
08:36PM 46.2880 -64.0400 48° Northeast 476 548 35,000  Level FlightAware
08:37PM 46.3380 -63.9590 48° Northeast 476 548 35,000  Level FlightAware
08:38PM 46.3880 -63.8790 48° Northeast 476 548 35,000  Level FlightAware
08:38PM 46.4510 -63.7780 48° Northeast 476 548 35,000  Level FlightAware
08:39PM 46.5010 -63.6970 48° Northeast 476 548 35,000  Level FlightAware
08:40PM 46.5510 -63.6160 48° Northeast 476 548 35,000  Level FlightAware
08:40PM 46.6010 -63.5350 48° Northeast 476 548 35,000  Level FlightAware
08:41PM 46.6510 -63.4540 48° Northeast 476 548 35,000  Level FlightAware
08:42PM 46.7140 -63.3530 48° Northeast 476 548 35,000  Level FlightAware
08:43PM 46.7640 -63.2710 48° Northeast 476 548 35,000  Level FlightAware
08:43PM 46.8140 -63.1900 48° Northeast 476 548 35,000  Level FlightAware
08:44PM 46.8640 -63.1090 48° Northeast 476 548 35,000  Level FlightAware
08:44PM 46.9667 -62.8167 48° Northeast 480 552 35,000  Level Gander Center
08:45PM 47.0167 -62.7500 42° Northeast 480 552 35,000  Level Gander Center
08:45PM 47.0333 -62.7333 34° Northeast 470 541 35,000  Level Moncton Center
08:46PM 47.1333 -62.5500 51° Northeast 470 541 35,000  Level Moncton Center
08:47PM 47.2167 -62.4333 44° Northeast 470 541 35,000  Level Moncton Center
08:48PM 47.3000 -62.2500 56° Northeast 470 541 35,000  Level Moncton Center
08:49PM 47.3833 -62.1000 51° Northeast 470 541 35,000  Level Moncton Center
08:50PM 47.4500 -61.9667 53° Northeast 470 541 35,000  Level Moncton Center
08:51PM 47.5333 -61.8500 43° Northeast 470 541 35,000  Level Gander Center
08:51PM 47.5333 -61.8167 90° East 470 541 35,000  Level Moncton Center
08:52PM 47.6333 -61.6667 45° Northeast 470 541 35,000  Level Moncton Center
08:53PM 47.7000 -61.5167 57° Northeast 470 541 35,000  Level Moncton Center
08:54PM 47.8000 -61.3500 48° Northeast 470 541 35,000  Level Moncton Center
08:55PM 47.8667 -61.2000 56° Northeast 470 541 35,000  Level Moncton Center
08:56PM 47.9500 -61.0500 50° Northeast 470 541 35,000  Level Moncton Center
08:57PM 48.0333 -60.8833 53° Northeast 470 541 35,000  Level Moncton Center
08:58PM 48.1167 -60.7667 43° Northeast 470 541 35,000  Level Moncton Center
08:59PM 48.2000 -60.5833 56° Northeast 470 541 35,000  Level Moncton Center
09:00PM 48.2667 -60.4833 45° Northeast 470 541 35,000  Level Gander Center
09:01PM 48.3500 -60.3333 50° Northeast 470 541 35,000  Level Gander Center
09:01PM 48.3667 -60.2833 63° Northeast 470 541 35,000  Level Moncton Center
09:02PM 48.4333 -60.1333 56° Northeast 470 541 35,000  Level Moncton Center
09:03PM 48.5000 -60.0167 49° Northeast 480 552 35,000  Level Gander Center
09:04PM 48.5667 -59.8667 56° Northeast 480 552 35,000  Level Gander Center
09:04PM 48.6167 -59.8167 33° Northeast 480 552 35,000  Level Moncton Center
09:05PM 48.6833 -59.6500 59° Northeast 480 552 35,000  Level Moncton Center
09:06PM 48.7667 -59.5000 50° Northeast 480 552 35,000  Level Moncton Center
09:07PM 48.8500 -59.3333 53° Northeast 480 552 35,000  Level Moncton Center
09:08PM 48.9167 -59.1667 59° Northeast 480 552 35,000  Level Moncton Center
09:09PM 49.0167 -59.0000 48° Northeast 480 552 35,000  Level Moncton Center
09:10PM 49.0833 -58.8500 56° Northeast 480 552 35,000  Level Moncton Center
09:11PM 49.1667 -58.6833 53° Northeast 480 552 35,000  Level Moncton Center
09:12PM 49.2333 -58.5667 49° Northeast 480 552 35,000  Level Gander Center
09:13PM 49.3000 -58.4167 56° Northeast 480 552 35,000  Level Gander Center
09:13PM 49.3167 -58.3500 69° East 480 552 35,000  Level Moncton Center
09:14PM 49.4167 -58.1833 47° Northeast 480 552 35,000  Level Moncton Center
09:15PM 49.4500 -58.0667 66° East 480 552 35,000  Level Gander Center
09:16PM 49.5167 -57.8833 61° Northeast 490 564 35,000  Level Gander Center
09:17PM 49.6000 -57.7000 55° Northeast 490 564 35,000  Level Gander Center
09:18PM 49.6500 -57.5167 67° East 490 564 35,000  Level Gander Center
09:19PM 49.7167 -57.3500 58° Northeast 490 564 35,000  Level Gander Center
09:20PM 49.7833 -57.1333 64° Northeast 490 564 35,000  Level Gander Center
09:20PM 49.8000 -57.1000 52° Northeast 490 564 35,000  Level Moncton Center
09:21PM 49.8667 -56.9167 61° Northeast 500 575 35,000  Level Moncton Center
09:22PM 49.9167 -56.7667 63° Northeast 490 564 35,000  Level Gander Center
09:23PM 49.9667 -56.6000 65° Northeast 500 575 35,000  Level Gander Center
09:24PM 50.0500 -56.3833 59° Northeast 500 575 35,000  Level Gander Center
09:24PM 50.0667 -56.3333 63° Northeast 500 575 35,000  Level Moncton Center
09:25PM 50.1167 -56.1667 65° Northeast 500 575 35,000  Level Moncton Center
09:26PM 50.1833 -56.0000 58° Northeast 500 575 35,000  Level Gander Center
09:27PM 50.2333 -55.8167 67° East 500 575 35,000  Level Gander Center
09:28PM 50.3000 -55.6167 62° Northeast 500 575 35,000  Level Gander Center
09:29PM 50.3667 -55.4333 60° Northeast 500 575 35,000  Level Gander Center
09:30PM 50.4333 -55.2333 62° Northeast 500 575 35,000 120 Level Gander Center
09:35PM 50.7940 -54.1730 62° Northeast 480 552 36,200 180 Climbing FlightAware
09:36PM 50.8190 -54.0940 63° Northeast 480 552 36,200 600 Level FlightAware
09:37PM 50.8710 -53.9220 64° Northeast 479 551 37,000 360 Climbing FlightAware
09:38PM 50.9390 -53.7030 64° Northeast 474 545 37,000  Level FlightAware
09:39PM 50.9910 -53.5300 64° Northeast 469 540 37,000  Level FlightAware
09:39PM 51.0220 -53.4240 65° Northeast 469 540 37,000  Level FlightAware
09:40PM 51.0610 -53.2910 65° Northeast 469 540 37,000  Level FlightAware
09:41PM 51.0920 -53.1840 65° Northeast 469 540 37,000  Level FlightAware
09:42PM 51.1230 -53.0780 65° Northeast 469 540 37,000  Level FlightAware
09:42PM 51.1540 -52.9710 65° Northeast 469 540 37,000  Level FlightAware
09:43PM 51.1850 -52.8650 65° Northeast 469 540 37,000  Level FlightAware
09:44PM 51.2170 -52.7580 64° Northeast 469 540 37,000  Level FlightAware
09:44PM 51.2560 -52.6240 65° Northeast 469 540 37,000  Level FlightAware
09:45PM 51.2870 -52.5180 65° Northeast 469 540 37,000  Level FlightAware
09:46PM 51.3180 -52.4110 65° Northeast 469 540 37,000  Level FlightAware
09:46PM 51.3490 -52.3040 65° Northeast 469 540 37,000  Level FlightAware
09:47PM 51.3800 -52.1970 65° Northeast 469 540 37,000  Level FlightAware
09:48PM 51.4190 -52.0630 65° Northeast 469 540 37,000  Level FlightAware
09:49PM 51.5167 -51.5667 65° Northeast 490 564 37,000  Level Gander Center
09:49PM 51.5667 -51.4500 55° Northeast 490 564 37,000  Level Gander Center
09:50PM 51.5833 -51.3500 75° East 490 564 37,000  Level Gander Center
09:51PM 51.6333 -51.1500 68° East 490 564 37,000  Level Gander Center
09:51PM 51.6667 -51.0667 57° Northeast 480 552 37,000  Level Gander Center
09:52PM 51.6833 -50.9500 77° East 480 552 37,000  Level Gander Center
09:53PM 51.7667 -50.7833 51° Northeast 490 564 37,000  Level Gander Center
09:54PM 51.8000 -50.5667 76° East 480 552 37,000  Level Gander Center
09:55PM 51.8500 -50.3667 68° East 480 552 37,000  Level Gander Center
09:58PM 51.9481 -50.1274 56° Northeast  Level FlightAware Approximate
10:05PM 52.1823 -48.6691 77° East  Level FlightAware Approximate
10:06PM 52.2099 -48.4570 78° East  Level FlightAware Approximate
10:07PM 52.2371 -48.2445 78° East  Level FlightAware Approximate
10:08PM 52.2639 -48.0319 78° East  Level FlightAware Approximate
10:09PM 52.2902 -47.8190 78° East  Level FlightAware Approximate
10:10PM 52.3163 -47.6058 79° East  Level FlightAware Approximate
10:11PM 52.3419 -47.3923 79° East  Level FlightAware Approximate
10:12PM 52.3672 -47.1787 79° East  Level FlightAware Approximate
10:13PM 52.3920 -46.9647 79° East  Level FlightAware Approximate
10:14PM 52.4165 -46.7506 79° East  Level FlightAware Approximate
10:15PM 52.4406 -46.5362 79° East  Level FlightAware Approximate
10:16PM 52.4643 -46.3216 80° East  Level FlightAware Approximate
10:17PM 52.4880 -46.1068 80° East  Level FlightAware Approximate
10:18PM 52.5113 -45.8919 80° East  Level FlightAware Approximate
10:19PM 52.5343 -45.6767 80° East  Level FlightAware Approximate
10:20PM 52.5569 -45.4613 80° East  Level FlightAware Approximate
10:21PM 52.5788 -45.2456 81° East  Level FlightAware Approximate
10:22PM 52.6001 -45.0296 81° East  Level FlightAware Approximate
10:23PM 52.6210 -44.8134 81° East  Level FlightAware Approximate
10:24PM 52.6415 -44.5971 81° East  Level FlightAware Approximate
10:25PM 52.6617 -44.3805 81° East  Level FlightAware Approximate
10:26PM 52.6814 -44.1637 81° East  Level FlightAware Approximate
10:27PM 52.7008 -43.9467 82° East  Level FlightAware Approximate
10:28PM 52.7197 -43.7295 82° East  Level FlightAware Approximate
10:29PM 52.7383 -43.5122 82° East  Level FlightAware Approximate
10:30PM 52.7564 -43.2947 82° East  Level FlightAware Approximate
10:31PM 52.7742 -43.0769 82° East  Level FlightAware Approximate
10:32PM 52.7915 -42.8591 82° East  Level FlightAware Approximate
10:33PM 52.8084 -42.6410 83° East  Level FlightAware Approximate
10:34PM 52.8258 -42.4229 82° East  Level FlightAware Approximate
10:35PM 52.8436 -42.2049 82° East  Level FlightAware Approximate
10:36PM 52.8609 -41.9866 82° East  Level FlightAware Approximate
10:37PM 52.8779 -41.7682 83° East  Level FlightAware Approximate
10:38PM 52.8945 -41.5496 83° East  Level FlightAware Approximate
10:39PM 52.9106 -41.3309 83° East  Level FlightAware Approximate
10:40PM 52.9263 -41.1120 83° East  Level FlightAware Approximate
10:41PM 52.9417 -40.8929 83° East  Level FlightAware Approximate
10:42PM 52.9566 -40.6737 83° East  Level FlightAware Approximate
10:43PM 52.9712 -40.4543 84° East  Level FlightAware Approximate
10:44PM 52.9853 -40.2348 84° East  Level FlightAware Approximate
10:45PM 52.9991 -40.0152 84° East  Level FlightAware Approximate
10:46PM 53.0288 -39.8000 76° East  Level FlightAware Approximate
10:47PM 53.0594 -39.5848 77° East  Level FlightAware Approximate
10:48PM 53.0896 -39.3693 77° East  Level FlightAware Approximate
10:49PM 53.1194 -39.1535 77° East  Level FlightAware Approximate
10:50PM 53.1488 -38.9375 77° East  Level FlightAware Approximate
10:51PM 53.1778 -38.7211 77° East  Level FlightAware Approximate
10:52PM 53.2064 -38.5044 77° East  Level FlightAware Approximate
10:53PM 53.2346 -38.2875 78° East  Level FlightAware Approximate
10:54PM 53.2624 -38.0702 78° East  Level FlightAware Approximate
10:55PM 53.2899 -37.8527 78° East  Level FlightAware Approximate
10:56PM 53.3169 -37.6349 78° East  Level FlightAware Approximate
10:57PM 53.3436 -37.4169 78° East  Level FlightAware Approximate
10:58PM 53.3698 -37.1985 79° East  Level FlightAware Approximate
10:59PM 53.3956 -36.9799 79° East  Level FlightAware Approximate
11:00PM 53.4211 -36.7611 79° East  Level FlightAware Approximate
11:01PM 53.4462 -36.5419 79° East  Level FlightAware Approximate
11:02PM 53.4708 -36.3226 79° East  Level FlightAware Approximate
11:03PM 53.4950 -36.1029 79° East  Level FlightAware Approximate
11:04PM 53.5189 -35.8830 80° East  Level FlightAware Approximate
11:05PM 53.5423 -35.6629 80° East  Level FlightAware Approximate
11:06PM 53.5653 -35.4425 80° East  Level FlightAware Approximate
11:07PM 53.5880 -35.2219 80° East  Level FlightAware Approximate
11:08PM 53.6102 -35.0011 80° East  Level FlightAware Approximate
11:09PM 53.6320 -34.7800 80° East  Level FlightAware Approximate
11:10PM 53.6534 -34.5587 81° East  Level FlightAware Approximate
11:11PM 53.6744 -34.3372 81° East  Level FlightAware Approximate
11:12PM 53.6950 -34.1154 81° East  Level FlightAware Approximate
11:13PM 53.7151 -33.8935 81° East  Level FlightAware Approximate
11:14PM 53.7349 -33.6713 81° East  Level FlightAware Approximate
11:15PM 53.7543 -33.4489 82° East  Level FlightAware Approximate
11:16PM 53.7732 -33.2263 82° East  Level FlightAware Approximate
11:17PM 53.7917 -33.0036 82° East  Level FlightAware Approximate
11:18PM 53.8099 -32.7806 82° East  Level FlightAware Approximate
11:19PM 53.8276 -32.5574 82° East  Level FlightAware Approximate
11:20PM 53.8448 -32.3341 82° East  Level FlightAware Approximate
11:21PM 53.8617 -32.1105 83° East  Level FlightAware Approximate
11:22PM 53.8782 -31.8868 83° East  Level FlightAware Approximate
11:23PM 53.8942 -31.6630 83° East  Level FlightAware Approximate
11:24PM 53.9098 -31.4389 83° East  Level FlightAware Approximate
11:25PM 53.9250 -31.2147 83° East  Level FlightAware Approximate
11:26PM 53.9398 -30.9903 84° East  Level FlightAware Approximate
11:27PM 53.9542 -30.7658 84° East  Level FlightAware Approximate
11:28PM 53.9682 -30.5411 84° East  Level FlightAware Approximate
11:29PM 53.9817 -30.3162 84° East  Level FlightAware Approximate
11:30PM 53.9948 -30.0913 84° East  Level FlightAware Approximate
11:31PM 54.0055 -29.8659 86° East  Level FlightAware Approximate
11:32PM 54.0144 -29.6402 86° East  Level FlightAware Approximate
11:33PM 54.0229 -29.4144 86° East  Level FlightAware Approximate
11:34PM 54.0310 -29.1885 86° East  Level FlightAware Approximate
11:35PM 54.0387 -28.9625 87° East  Level FlightAware Approximate
11:36PM 54.0459 -28.7365 87° East  Level FlightAware Approximate
11:37PM 54.0527 -28.5104 87° East  Level FlightAware Approximate
11:38PM 54.0591 -28.2842 87° East  Level FlightAware Approximate
11:39PM 54.0650 -28.0579 87° East  Level FlightAware Approximate
11:40PM 54.0706 -27.8316 88° East  Level FlightAware Approximate
11:41PM 54.0757 -27.6052 88° East  Level FlightAware Approximate
11:42PM 54.0804 -27.3788 88° East  Level FlightAware Approximate
11:43PM 54.0846 -27.1523 88° East  Level FlightAware Approximate
11:44PM 54.0885 -26.9258 88° East  Level FlightAware Approximate
11:45PM 54.0919 -26.6992 88° East  Level FlightAware Approximate
11:46PM 54.0948 -26.4726 89° East  Level FlightAware Approximate
11:47PM 54.0974 -26.2460 89° East  Level FlightAware Approximate
11:48PM 54.0995 -26.0194 89° East  Level FlightAware Approximate
11:49PM 54.1012 -25.7927 89° East  Level FlightAware Approximate
11:50PM 54.1025 -25.5660 89° East  Level FlightAware Approximate
11:51PM 54.1034 -25.3393 90° East  Level FlightAware Approximate
11:52PM 54.1038 -25.1126 90° East  Level FlightAware Approximate
11:53PM 54.1038 -24.8859 90° East  Level FlightAware Approximate
11:54PM 54.1033 -24.6591 90° East  Level FlightAware Approximate
11:55PM 54.1025 -24.4324 90° East  Level FlightAware Approximate
11:56PM 54.1012 -24.2058 90° East  Level FlightAware Approximate
11:57PM 54.0995 -23.9791 91° East  Level FlightAware Approximate
11:58PM 54.0974 -23.7524 91° East  Level FlightAware Approximate
11:59PM 54.0948 -23.5258 91° East  Level FlightAware Approximate
12:00AM 54.0918 -23.2992 91° East  Level FlightAware Approximate
12:01AM 54.0884 -23.0726 91° East  Level FlightAware Approximate
12:02AM 54.0846 -22.8461 92° East  Level FlightAware Approximate
12:03AM 54.0803 -22.6196 92° East  Level FlightAware Approximate
12:04AM 54.0756 -22.3932 92° East  Level FlightAware Approximate
12:05AM 54.0705 -22.1668 92° East  Level FlightAware Approximate
12:06AM 54.0650 -21.9405 92° East  Level FlightAware Approximate
12:07AM 54.0590 -21.7142 92° East  Level FlightAware Approximate
12:08AM 54.0527 -21.4881 93° East  Level FlightAware Approximate
12:09AM 54.0458 -21.2619 93° East  Level FlightAware Approximate
12:10AM 54.0386 -21.0359 93° East  Level FlightAware Approximate
12:11AM 54.0309 -20.8099 93° East  Level FlightAware Approximate
12:12AM 54.0229 -20.5840 93° East  Level FlightAware Approximate
12:13AM 54.0144 -20.3583 94° East  Level FlightAware Approximate
12:14AM 54.0054 -20.1326 94° East  Level FlightAware Approximate
12:15AM 54.0032 -19.9069 87° East  Level FlightAware Approximate
12:16AM 54.0108 -19.6811 87° East  Level FlightAware Approximate
12:17AM 54.0179 -19.4552 87° East  Level FlightAware Approximate
12:18AM 54.0246 -19.2292 87° East  Level FlightAware Approximate
12:19AM 54.0309 -19.0031 87° East  Level FlightAware Approximate
12:20AM 54.0367 -18.7770 87° East  Level FlightAware Approximate
12:21AM 54.0421 -18.5509 88° East  Level FlightAware Approximate
12:22AM 54.0471 -18.3246 88° East  Level FlightAware Approximate
12:23AM 54.0517 -18.0984 88° East  Level FlightAware Approximate
12:24AM 54.0559 -17.8720 88° East  Level FlightAware Approximate
12:25AM 54.0596 -17.6457 88° East  Level FlightAware Approximate
12:26AM 54.0629 -17.4192 88° East  Level FlightAware Approximate
12:27AM 54.0658 -17.1928 89° East  Level FlightAware Approximate
12:28AM 54.0682 -16.9663 89° East  Level FlightAware Approximate
12:29AM 54.0703 -16.7398 89° East  Level FlightAware Approximate
12:30AM 54.0719 -16.5133 89° East  Level FlightAware Approximate
12:31AM 54.0730 -16.2868 89° East  Level FlightAware Approximate
12:32AM 54.0738 -16.0602 90° East  Level FlightAware Approximate
12:33AM 54.0741 -15.8337 90° East  Level FlightAware Approximate
12:33AM 53.1040 -13.7850 90° East 477 549 37,000  Level FlightAware
12:34AM 54.0740 -15.6071 90° East  Level FlightAware Approximate
12:34AM 53.1170 -13.6270 82° East 477 549 37,000  Level FlightAware
12:35AM 53.1290 -13.4750 82° East 478 550 37,000  Level FlightAware
12:35AM 53.1420 -13.3140 82° East 478 550 37,000  Level FlightAware
12:36AM 53.1530 -13.1700 83° East 478 550 37,000  Level FlightAware
12:37AM 53.1640 -13.0270 83° East 477 549 37,000  Level FlightAware
12:37AM 53.1770 -12.8620 82° East 477 549 37,000  Level FlightAware
12:38AM 53.1880 -12.7100 83° East 475 547 37,000  Level FlightAware
12:39AM 53.2000 -12.5530 83° East 474 545 37,000  Level FlightAware
12:39AM 53.2080 -12.4310 84° East 474 545 37,000  Level FlightAware
12:40AM 53.2220 -12.2320 83° East 473 544 37,000  Level FlightAware
12:41AM 53.2320 -12.0890 83° East 474 545 37,000  Level FlightAware
12:42AM 53.2420 -11.9410 83° East 475 547 37,000  Level FlightAware
12:42AM 53.2530 -11.7820 83° East 474 545 37,000  Level FlightAware
12:43AM 53.2620 -11.6370 84° East 474 545 37,000  Level FlightAware
12:44AM 53.2730 -11.4690 84° East 475 547 37,000  Level FlightAware
12:44AM 53.2820 -11.3320 84° East 475 547 37,000  Level FlightAware
12:45AM 53.2920 -11.1630 84° East 476 548 37,000  Level FlightAware
12:46AM 53.3010 -11.0210 84° East 478 550 37,000  Level FlightAware
12:46AM 53.3100 -10.8680 84° East 478 550 37,000  Level FlightAware
12:47AM 53.3190 -10.7020 85° East 480 552 37,000  Level FlightAware
12:48AM 53.3270 -10.5550 85° East 479 551 37,000  Level FlightAware
12:49AM 53.3370 -10.3870 84° East 479 551 37,000  Level FlightAware
12:49AM 53.3440 -10.2430 85° East 478 550 37,000  Level FlightAware
12:50AM 53.3520 -10.0930 85° East 479 551 37,000  Level FlightAware
12:51AM 53.3590 -9.9470 85° East 478 550 37,000  Level FlightAware
12:51AM 53.3660 -9.8160 85° East 478 550 37,000  Level FlightAware
12:52AM 53.3730 -9.6530 86° East 477 549 37,000  Level FlightAware
12:53AM 53.3810 -9.4880 85° East 478 550 37,000  Level FlightAware
12:53AM 53.3880 -9.3400 85° East 478 550 37,000  Level FlightAware
12:54AM 53.3940 -9.1940 86° East 478 550 37,000  Level FlightAware
12:55AM 53.4010 -9.0290 86° East 479 551 37,000 -1,440 Level FlightAware
12:55AM 53.3948 -8.9436 86° East 462 532 35,500  Descending FlightAware UK
12:55AM 53.4060 -8.8980 86° East 478 550 37,000  Climbing FlightAware
12:55AM 53.3974 -8.8773 86° East 464 534 35,500 -4,740 Descending FlightAware UK
12:56AM 53.3998 -8.8109 86° East 464 534 35,500  Level FlightAware UK
12:56AM 53.4023 -8.7448 86° East 462 532 35,500 3,420 Level FlightAware UK
12:56AM 53.4130 -8.7300 86° East 476 548 37,000  Climbing FlightAware
12:56AM 53.4057 -8.6569 86° East 462 532 35,500 -2,700 Descending FlightAware UK
12:57AM 53.4081 -8.5911 86° East 462 532 35,500 3,060 Level FlightAware UK
12:57AM 53.4190 -8.5680 86° East 472 543 37,000  Climbing FlightAware
12:57AM 53.4119 -8.4817 86° East 462 532 35,500 -2,460 Descending FlightAware UK
12:58AM 53.4142 -8.4157 87° East 460 529 35,500 4,260 Level FlightAware UK
12:58AM 53.4250 -8.4210 87° East 471 542 37,000  Climbing FlightAware
12:58AM 53.4165 -8.3504 87° East 460 529 35,500 -2,760 Descending FlightAware UK
12:58AM 53.4187 -8.2853 87° East 458 527 35,500 3,000 Level FlightAware UK
12:58AM 53.4300 -8.2570 87° East 469 540 37,000  Climbing FlightAware
12:59AM 53.4223 -8.1770 87° East 450 518 35,500 -2,520 Descending FlightAware UK
12:59AM 53.4246 -8.1123 87° East 450 518 35,500 4,080 Level FlightAware UK
12:59AM 53.4350 -8.1140 87° East 469 540 37,000  Climbing FlightAware
12:59AM 53.4279 -8.0043 87° East 452 520 35,500 -2,100 Descending FlightAware UK
01:00AM 53.4299 -7.9392 87° East 450 518 35,500 4,680 Level FlightAware UK
01:00AM 53.4410 -7.9480 87° East 469 540 37,000  Climbing FlightAware
01:00AM 53.4318 -7.8740 87° East 452 520 35,500 -2,580 Descending FlightAware UK
01:00AM 53.4338 -7.8090 87° East 448 516 35,500 3,900 Level FlightAware UK
01:00AM 53.4450 -7.8050 87° East 471 542 37,000  Climbing FlightAware
01:01AM 53.4364 -7.7218 87° East 448 516 35,500  Descending FlightAware UK
01:01AM 53.4490 -7.6790 87° East 473 544 37,000  Climbing FlightAware
01:01AM 53.4383 -7.6563 87° East 444 511 35,500 -4,500 Descending FlightAware UK
01:01AM 53.4403 -7.5906 87° East 450 518 35,500 2,700 Level FlightAware UK
01:02AM 53.4520 -7.5520 87° East 477 549 37,000  Climbing FlightAware
01:02AM 53.4422 -7.5245 87° East 454 522 35,500 -4,320 Descending FlightAware UK
01:02AM 53.4440 -7.4582 87° East 456 525 35,500  Level FlightAware UK
01:02AM 53.4457 -7.3916 88° East 458 527 35,500 4,680 Level FlightAware UK
01:02AM 53.4570 -7.3990 88° East 479 551 37,000  Climbing FlightAware
01:03AM 53.4474 -7.3247 88° East 458 527 35,500 -2,580 Descending FlightAware UK
01:03AM 53.4489 -7.2578 88° East 462 532 35,500 3,180 Level FlightAware UK
01:03AM 53.4610 -7.2330 88° East 481 554 37,000  Climbing FlightAware
01:03AM 53.4517 -7.1456 88° East 462 532 35,500 -2,400 Descending FlightAware UK
01:04AM 53.4533 -7.0787 88° East 464 534 35,500 2,520 Level FlightAware UK
01:04AM 53.4660 -7.0320 88° East 481 554 37,000  Climbing FlightAware
01:04AM 53.4549 -7.0119 88° East 464 534 35,500 -4,740 Descending FlightAware UK
01:04AM 53.4566 -6.9450 88° East 464 534 35,500  Level FlightAware UK
01:05AM 53.4580 -6.8780 88° East 462 532 35,500 4,260 Level FlightAware UK
01:05AM 53.4690 -6.8770 88° East 482 555 37,000  Climbing FlightAware
01:05AM 53.4594 -6.8110 88° East 460 529 35,500 -2,760 Descending FlightAware UK
01:05AM 53.4608 -6.7441 88° East 462 532 35,500 3,000 Level FlightAware UK
01:05AM 53.4730 -6.7120 88° East 483 556 37,000  Climbing FlightAware
01:06AM 53.4630 -6.6323 88° East 462 532 35,500 -2,520 Descending FlightAware UK
01:06AM 53.4644 -6.5651 88° East 462 532 35,500  Level FlightAware UK
01:06AM 53.4656 -6.4980 88° East 460 529 35,500 4,680 Level FlightAware UK
01:06AM 53.4770 -6.5090 88° East 483 556 37,000  Climbing FlightAware
01:07AM 53.4670 -6.4309 88° East 460 529 35,500 -2,580 Descending FlightAware UK
01:07AM 53.4682 -6.3638 88° East 460 529 35,500 3,900 Level FlightAware UK
01:07AM 53.4790 -6.3630 88° East 483 556 37,000  Climbing FlightAware
01:07AM 53.4696 -6.2743 88° East 460 529 35,500 -2,460 Descending FlightAware UK
01:08AM 53.4707 -6.2064 88° East 462 532 35,500 3,420 Level FlightAware UK
01:08AM 53.4820 -6.1890 88° East 484 557 37,000  Climbing FlightAware
01:08AM 53.4721 -6.1176 88° East 462 532 35,500 -2,280 Descending FlightAware UK
01:08AM 53.4735 -6.0272 88° East 462 532 35,500 3,720 Level FlightAware UK
01:08AM 53.4840 -6.0370 88° East 484 557 37,000  Climbing FlightAware
01:09AM 53.4748 -5.9376 88° East 460 529 35,500  Descending FlightAware UK
01:09AM 53.4860 -5.8900 88° East 485 558 37,000  Climbing FlightAware
01:09AM 53.4759 -5.8703 88° East 468 539 35,500 -4,500 Descending FlightAware UK
01:09AM 53.4768 -5.8029 88° East 464 534 35,500  Level FlightAware UK
01:10AM 53.4740 -5.7118 93° East 464 534 35,500 3,600 Level FlightAware UK
01:10AM 53.4850 -5.7210 93° East 486 559 37,000  Climbing FlightAware
01:10AM 53.4714 -5.6451 93° East 460 529 35,500 -2,580 Descending FlightAware UK
01:10AM 53.4688 -5.5767 94° East 464 534 35,500  Level FlightAware UK
01:11AM 53.4664 -5.5097 93° East 466 536 35,500 2,520 Level FlightAware UK
01:11AM 53.4750 -5.4550 93° East 487 560 37,000  Climbing FlightAware
01:11AM 53.4639 -5.4421 93° East 466 536 35,500 -4,740 Descending FlightAware UK
01:11AM 53.4609 -5.3745 93° East 468 539 35,500  Level FlightAware UK
01:12AM 53.4571 -5.3063 95° East 468 539 35,500  Level FlightAware UK
01:12AM 53.4534 -5.2389 95° East 466 536 35,500  Level FlightAware UK
01:12AM 53.4498 -5.1717 95° East 470 541 35,500 3,000 Level FlightAware UK
01:12AM 53.4580 -5.1370 95° East 485 558 37,000  Climbing FlightAware
01:13AM 53.4441 -5.0590 95° East 466 536 35,500 -2,520 Descending FlightAware UK
01:13AM 53.4409 -4.9927 95° East 466 536 35,500  Level FlightAware UK
01:13AM 53.4376 -4.9258 95° East 462 532 35,500 2,640 Level FlightAware UK
01:13AM 53.4450 -4.8750 95° East 482 555 37,000  Climbing FlightAware
01:14AM 53.4318 -4.8137 95° East 466 536 35,500 -2,760 Descending FlightAware UK
01:14AM 53.4285 -4.7469 95° East 462 532 35,500  Level FlightAware UK
01:14AM 53.4249 -4.6803 95° East 466 536 35,500  Level FlightAware UK
01:15AM 53.4213 -4.6137 95° East 462 532 35,500 3,720 Level FlightAware UK
01:15AM 53.4300 -4.5960 95° East 480 552 37,000  Climbing FlightAware
01:15AM 53.4165 -4.5251 95° East 462 532 35,500 -2,520 Descending FlightAware UK
01:15AM 53.4128 -4.4588 95° East 464 534 35,500  Level FlightAware UK
01:16AM 53.4090 -4.3918 95° East 460 529 35,500  Level FlightAware UK
01:16AM 53.4052 -4.3255 95° East 464 534 35,500  Level FlightAware UK
01:16AM 53.4015 -4.2592 95° East 460 529 35,500  Level FlightAware UK
01:17AM 53.3977 -4.1930 95° East 460 529 35,500  Level FlightAware UK
01:17AM 53.3939 -4.1268 96° East 460 529 35,500  Level FlightAware UK
01:17AM 53.3899 -4.0607 96° East 464 534 35,500 4,680 Level FlightAware UK
01:17AM 53.3990 -4.0600 96° East 479 551 37,000  Climbing FlightAware
01:17AM 53.3860 -3.9946 96° East 464 534 35,500 -2,580 Descending FlightAware UK
01:18AM 53.3820 -3.9293 96° East 462 532 35,500  Level FlightAware UK
01:18AM 53.3779 -3.8626 96° East 464 534 35,500 3,420 Level FlightAware UK
01:18AM 53.3843 -3.8304 96° East 479 551 37,000  Climbing FlightAware ADS-B
01:18AM 53.3725 -3.7746 96° East 464 534 35,500  Descending FlightAware UK
01:19AM 53.3771 -3.7167 96° East 478 550 37,000  Climbing FlightAware ADS-B
01:19AM 53.3656 -3.6647 96° East 460 529 35,500  Descending FlightAware UK
01:19AM 53.3692 -3.5956 96° East 478 550 37,000  Climbing FlightAware ADS-B
01:20AM 53.3574 -3.5329 96° East 462 532 35,500  Descending FlightAware UK
01:20AM 53.3618 -3.4827 96° East 478 550 37,000  Climbing FlightAware ADS-B
01:20AM 53.3501 -3.4225 96° East 462 532 35,500  Descending FlightAware UK
01:20AM 53.3544 -3.3697 96° East 478 550 37,000  Climbing FlightAware ADS-B
01:21AM 53.3415 -3.2900 96° East 462 532 35,500  Descending FlightAware UK
01:21AM 53.3469 -3.2592 96° East 478 550 37,000  Climbing FlightAware ADS-B
01:21AM 53.3357 -3.2030 96° East 460 529 35,500  Descending FlightAware UK
01:21AM 53.3393 -3.1471 96° East 479 551 37,000  Climbing FlightAware ADS-B
01:22AM 53.3285 -3.0932 96° East 462 532 35,500  Descending FlightAware UK
01:22AM 53.3312 -3.0296 96° East 479 551 37,000  Climbing FlightAware ADS-B
01:22AM 53.3194 -2.9614 96° East 458 527 35,500  Descending FlightAware UK
01:22AM 53.3234 -2.9167 96° East 479 551 37,000  Climbing FlightAware ADS-B
01:23AM 53.3117 -2.8515 96° East 460 529 35,500  Descending FlightAware UK
01:23AM 53.3153 -2.8053 96° East 479 551 37,000  Climbing FlightAware ADS-B
01:23AM 53.3040 -2.7407 96° East 458 527 35,500  Descending FlightAware UK
01:23AM 53.3069 -2.6891 96° East 482 555 37,000  Climbing FlightAware ADS-B
01:24AM 53.2961 -2.6303 96° East 460 529 35,500  Descending FlightAware UK
01:24AM 53.2986 -2.5747 96° East 482 555 37,000  Climbing FlightAware ADS-B
01:24AM 53.2882 -2.5190 96° East 462 532 35,500  Descending FlightAware UK
01:24AM 53.2897 -2.4550 96° East 481 554 37,000  Climbing FlightAware ADS-B
01:25AM 53.2784 -2.3869 96° East 460 529 35,500  Descending FlightAware UK
01:25AM 53.2796 -2.3216 96° East 483 556 37,000  Climbing FlightAware ADS-B
01:25AM 53.2683 -2.2547 96° East 462 532 35,500  Descending FlightAware UK
01:26AM 53.2710 -2.2150 96° East 482 555 37,000  Climbing FlightAware
01:26AM 53.2595 -2.1442 96° East 464 534 35,500  Descending FlightAware UK
01:26AM 53.2578 -2.0500 96° East 483 556 37,000  Climbing FlightAware ADS-B
01:27AM 53.2471 -1.9892 96° East 464 534 35,500  Descending FlightAware UK
01:27AM 53.2484 -1.9360 96° East 483 556 37,000  Climbing FlightAware ADS-B
01:27AM 53.2381 -1.8783 96° East 462 532 35,500 -2,580 Descending FlightAware UK
01:27AM 53.2326 -1.8123 98° East 464 534 35,500  Level FlightAware UK
01:28AM 53.2272 -1.7462 98° East 464 534 35,500 2,220 Level FlightAware UK
01:28AM 53.2253 -1.6593 98° East 482 555 37,000  Climbing FlightAware ADS-B
01:28AM 53.2144 -1.5922 98° East 466 536 35,500  Descending FlightAware UK
01:29AM 53.2152 -1.5398 98° East 481 554 37,000  Climbing FlightAware ADS-B
01:29AM 53.2051 -1.4823 98° East 464 534 35,500  Descending FlightAware UK
01:29AM 53.2047 -1.4176 98° East 481 554 37,000  Climbing FlightAware ADS-B
01:29AM 53.1941 -1.3506 98° East 464 534 35,500  Descending FlightAware UK
01:30AM 53.1948 -1.3034 98° East 481 554 37,000  Climbing FlightAware ADS-B
01:30AM 53.1844 -1.2403 98° East 466 536 35,500  Descending FlightAware UK
01:30AM 53.1839 -1.1812 98° East 481 554 37,000  Climbing FlightAware ADS-B
01:30AM 53.1748 -1.1306 98° East 462 532 35,500  Descending FlightAware UK
01:31AM 53.1733 -1.0614 98° East 481 554 37,000  Climbing FlightAware ADS-B
01:31AM 53.1612 -0.9763 98° East 462 532 35,500  Descending FlightAware UK
01:31AM 53.1584 -0.8955 98° East 481 554 37,000  Climbing FlightAware ADS-B
01:32AM 53.1494 -0.8448 98° East 460 529 35,500  Descending FlightAware UK
01:32AM 53.1471 -0.7727 98° East 482 555 37,000  Climbing FlightAware ADS-B
01:32AM 53.1354 -0.6913 98° East 460 529 35,500  Descending FlightAware UK
01:33AM 53.1369 -0.6625 98° East 482 555 37,000  Climbing FlightAware ADS-B
01:33AM 53.1273 -0.6030 98° East 462 532 35,500  Descending FlightAware UK
01:33AM 53.1266 -0.5521 98° East 482 555 37,000  Climbing FlightAware ADS-B
01:33AM 53.1171 -0.4941 98° East 464 534 35,500  Descending FlightAware UK
01:34AM 53.1163 -0.4424 98° East 482 555 37,000  Climbing FlightAware ADS-B
01:34AM 53.1067 -0.3838 98° East 462 532 35,500  Descending FlightAware UK
01:34AM 53.1059 -0.3329 98° East 477 549 37,000  Climbing FlightAware ADS-B
01:34AM 53.0966 -0.2748 98° East 458 527 35,500  Descending FlightAware UK
01:35AM 53.0944 -0.2127 98° East 472 543 37,000  Climbing FlightAware ADS-B
01:35AM 53.0840 -0.1463 98° East 454 522 35,500  Descending FlightAware UK
01:35AM 53.0834 -0.0997 98° East 467 537 37,000  Climbing FlightAware ADS-B
01:35AM 53.0737 -0.0403 98° East 450 518 35,500  Descending FlightAware UK
01:36AM 53.0729 0.0081 98° East 465 535 37,000  Climbing FlightAware ADS-B
01:36AM 53.0634 0.0653 98° East 448 516 35,500  Descending FlightAware UK
01:36AM 53.0619 0.1185 98° East 465 535 37,000  Climbing FlightAware ADS-B
01:36AM 53.0529 0.1715 98° East 450 518 35,500  Descending FlightAware UK
01:37AM 53.0514 0.2249 98° East 467 537 37,000  Climbing FlightAware ADS-B
01:37AM 53.0425 0.2773 98° East 450 518 35,500  Descending FlightAware UK
01:37AM 53.0408 0.3308 98° East 468 539 37,000  Climbing FlightAware ADS-B
01:37AM 53.0318 0.3832 98° East 448 516 35,500  Descending FlightAware UK
01:38AM 53.0279 0.4581 98° East 469 540 37,000 1,800 Climbing FlightAware ADS-B
01:38AM 53.0168 0.5658 100° East 470 541 37,000 -1,980 Level FlightAware ADS-B
01:39AM 53.0077 0.6178 100° East 450 518 35,500  Descending FlightAware UK
01:39AM 53.0058 0.6728 100° East 470 541 37,000  Climbing FlightAware ADS-B
01:39AM 52.9966 0.7249 100° East 452 520 35,500  Descending FlightAware UK
01:39AM 52.9945 0.7812 100° East 471 542 37,000  Climbing FlightAware ADS-B
01:40AM 52.9856 0.8314 100° East 454 522 35,500  Descending FlightAware UK
01:40AM 52.9831 0.8890 100° East 471 542 37,000  Climbing FlightAware ADS-B
01:40AM 52.9743 0.9387 100° East 454 522 35,500  Descending FlightAware UK
01:40AM 52.9716 0.9991 100° East 471 542 37,000  Climbing FlightAware ADS-B
01:41AM 52.9606 1.0658 100° East 452 520 35,500  Descending FlightAware UK
01:41AM 52.9601 1.1060 100° East 470 541 37,000 -720 Climbing FlightAware ADS-B
01:41AM 52.9460 1.1937 100° East 448 516 35,100 -1,080 Descending FlightAware UK
01:41AM 52.9471 1.2267 100° East 467 537 36,400 -2,040 Climbing FlightAware ADS-B
01:42AM 52.9376 1.2781 100° East 448 516 34,300 -1,800 Descending FlightAware UK
01:42AM 52.9354 1.3345 100° East 462 532 35,500 -2,040 Climbing FlightAware ADS-B
01:42AM 52.9262 1.3826 100° East 436 502 33,300 -2,040 Descending FlightAware UK
01:42AM 52.9243 1.4375 100° East 451 519 34,500 -1,560 Climbing FlightAware ADS-B
01:43AM 52.9152 1.4841 100° East 424 488 32,500 -2,400 Descending FlightAware UK
01:43AM 52.9131 1.5378 100° East 441 507 33,300 -2,700 Climbing FlightAware ADS-B
01:43AM 52.9040 1.5831 100° East 416 479 31,200 -2,160 Descending FlightAware UK
01:43AM 52.9007 1.6497 100° East 431 496 32,100 -2,040 Climbing FlightAware ADS-B
01:44AM 52.8908 1.6998 100° East 408 470 30,000 -1,800 Descending FlightAware UK
01:44AM 52.8897 1.7486 100° East 423 487 31,200 -1,800 Climbing FlightAware ADS-B
01:44AM 52.8798 1.7962 100° East 402 463 29,100 -4,500 Descending FlightAware UK
01:45AM 52.8735 1.8518 101° East 396 456 28,600 2,700 Descending FlightAware UK
01:45AM 52.8770 1.8590 101° East 409 471 30,100 -2,040 Climbing FlightAware
01:45AM 52.8652 1.9258 101° East 388 447 27,800 -4,620 Descending FlightAware UK
01:45AM 52.8589 1.9797 101° East 384 442 27,200 1,920 Descending FlightAware UK
01:45AM 52.8620 1.9960 101° East 399 459 28,600 -1,500 Climbing FlightAware
01:46AM 52.8504 2.0520 101° East 378 435 26,600 -4,140 Descending FlightAware UK
01:46AM 52.8443 2.1048 101° East 372 428 26,200 2,100 Descending FlightAware UK
01:46AM 52.8460 2.1310 101° East 385 443 27,600 -1,200 Climbing FlightAware
01:46AM 52.8343 2.1906 101° East 362 417 25,600 -3,660 Descending FlightAware UK
01:47AM 52.8283 2.2416 101° East 358 412 25,300 3,600 Descending FlightAware UK
01:47AM 52.8330 2.2460 101° East 375 432 26,800 -1,380 Climbing FlightAware
01:47AM 52.8224 2.2921 101° East 356 410 24,900 -3,780 Descending FlightAware UK
01:47AM 52.8144 2.3590 101° East 354 407 24,300 2,040 Descending FlightAware UK
01:48AM 52.8190 2.3680 101° East 365 420 25,900 -1,200 Climbing FlightAware
01:48AM 52.8027 2.4569 101° East 348 400 23,600 -1,380 Descending FlightAware UK
01:48AM 52.8060 2.4750 101° East 356 410 25,000 -1,800 Climbing FlightAware
01:49AM 52.7931 2.5367 101° East 346 398 22,700 -4,500 Descending FlightAware UK
01:49AM 52.7869 2.5842 102° East 348 400 22,100 3,420 Descending FlightAware UK
01:49AM 52.7930 2.5840 102° East 358 412 23,800 -360 Climbing FlightAware
01:49AM 52.7805 2.6327 102° East 336 387 22,000 -3,480 Descending FlightAware UK
01:49AM 52.7740 2.6792 103° East 324 373 21,800 2,760 Descending FlightAware UK
01:50AM 52.7780 2.7010 103° East 335 386 23,300 -600 Climbing FlightAware
01:50AM 52.7646 2.7525 103° East 308 354 21,500 -600 Descending FlightAware UK
01:50AM 52.7650 2.7980 103° East 316 364 22,900 -600 Climbing FlightAware
01:51AM 52.7518 2.8506 103° East 292 336 21,100 -900 Descending FlightAware UK
01:51AM 52.7540 2.8900 103° East 302 348 22,300 -1,380 Climbing FlightAware
01:51AM 52.7411 2.9325 103° East 288 331 20,300 -4,020 Descending FlightAware UK
01:52AM 52.7308 2.9692 115° Southeast 288 331 19,900 2,220 Descending FlightAware UK
01:52AM 52.7310 2.9850 115° Southeast 292 336 21,300 -1,020 Climbing FlightAware
01:52AM 52.7090 3.0082 115° Southeast 284 327 19,500 -3,540 Descending FlightAware UK
01:52AM 52.6860 3.0465 135° Southeast 280 322 19,000 2,640 Descending FlightAware UK
01:52AM 52.6940 3.0490 135° Southeast 288 331 20,600 -1,320 Climbing FlightAware
01:53AM 52.6690 3.0749 135° Southeast 278 320 18,600 -3,840 Descending FlightAware UK
01:53AM 52.6521 3.1030 135° Southeast 278 320 18,300 2,400 Descending FlightAware UK
01:53AM 52.6530 3.1180 135° Southeast 284 327 19,700 -1,200 Climbing FlightAware
01:54AM 52.6182 3.1573 135° Southeast 276 318 17,600 -1,200 Descending FlightAware UK
01:54AM 52.6160 3.1760 135° Southeast 280 322 18,900 -1,200 Climbing FlightAware
01:54AM 52.5896 3.2008 135° Southeast 272 313 17,000 -3,960 Descending FlightAware UK
01:54AM 52.5728 3.2270 137° Southeast 270 311 16,600 2,100 Descending FlightAware UK
01:55AM 52.5750 3.2410 137° Southeast 278 320 18,000 3,300 Climbing FlightAware
01:55AM 52.5650 3.2630 127° Southeast 280 322 17,700 -4,320 Descending FlightAware
01:55AM 52.5481 3.3036 127° Southeast 268 308 15,700 -1,020 Descending FlightAware UK
01:55AM 52.5560 3.3240 127° Southeast 278 320 17,200 -1,020 Climbing FlightAware
01:55AM 52.5463 3.3544 127° Southeast 266 306 15,300 -4,080 Descending FlightAware UK
01:56AM 52.5448 3.3919 94° East 262 302 14,900 2,700 Descending FlightAware UK
01:56AM 52.5530 3.4060 94° East 275 316 16,400 -1,260 Climbing FlightAware
01:56AM 52.5431 3.4420 94° East 260 299 14,400 -1,380 Descending FlightAware UK
01:57AM 52.5510 3.4980 94° East 277 319 15,400 -1,320 Climbing FlightAware
01:57AM 52.5407 3.5300 94° East 258 297 13,500 -4,200 Descending FlightAware UK
01:57AM 52.5397 3.5678 93° East 256 295 13,100 2,640 Descending FlightAware UK
01:57AM 52.5490 3.5820 93° East 276 318 14,600 -1,380 Climbing FlightAware
01:58AM 52.5369 3.6431 93° East 256 295 12,300 -1,380 Descending FlightAware UK
01:58AM 52.5460 3.6770 93° East 273 314 13,600 -1,380 Climbing FlightAware
01:58AM 52.5343 3.7182 93° East 252 290 11,500 -1,680 Descending FlightAware UK
01:59AM 52.5440 3.7590 93° East 270 311 12,500 -2,040 Climbing FlightAware
01:59AM 52.5311 3.8039 93° East 254 292 10,100 -1,980 Descending FlightAware UK
01:59AM 52.5410 3.8420 93° East 273 314 11,200 -1,380 Climbing FlightAware
02:00AM 52.5286 3.8785 93° East 250 288 9,300 -1,200 Descending FlightAware UK
02:00AM 52.5390 3.9320 93° East 272 313 10,300 -1,140 Climbing FlightAware
02:00AM 52.5245 3.9776 93° East 1 1 8,400 -720 Descending FlightAware UK
02:01AM 52.5340 3.9850 93° East 265 305 10,000 -1,020 Climbing FlightAware
02:01AM 52.5111 4.0208 93° East 1 1 8,000 -1,200 Descending FlightAware UK
02:01AM 52.5210 4.0420 93° East 264 304 9,400 1,020 Climbing FlightAware
02:02AM 52.5080 4.0980 111° Southeast 262 302 8,700 -1,380 Descending FlightAware
02:02AM 52.5030 4.1160 115° Southeast 261 300 8,500 -1,200 Descending FlightAware
02:02AM 52.4900 4.1700 112° Southeast 259 298 7,900 -1,140 Descending FlightAware
02:03AM 52.4770 4.2250 111° Southeast 257 296 7,400 -3,180 Descending FlightAware
02:03AM 52.4564 4.2539 111° Southeast 1 1 5,500 -1,200 Descending FlightAware UK
02:03AM 52.4660 4.2710 111° Southeast 255 293 6,900 -1,200 Climbing FlightAware
02:04AM 52.4402 4.3186 111° Southeast 1 1 4,800 -1,200 Descending FlightAware UK
02:04AM 52.4530 4.3250 111° Southeast 252 290 6,300 -1,380 Climbing FlightAware
02:04AM 52.4320 4.3505 111° Southeast 1 1 4,400 -960 Descending FlightAware UK
02:04AM 52.4430 4.3680 111° Southeast 251 289 5,900 1,320 Climbing FlightAware
02:05AM 52.4300 4.4200 112° Southeast 248 285 5,300 -1,140 Descending FlightAware
02:05AM 52.4210 4.4690 107° East 251 289 4,800 -1,140 Descending FlightAware
02:05AM 52.4340 4.5130 64° Northeast 249 287 4,300 -1,200 Descending FlightAware
02:06AM 52.4480 4.5240 26° Northeast 242 278 4,000 -1,200 Descending FlightAware
02:06AM 52.4660 4.5340 19° North 239 275 3,700 -1,080 Descending FlightAware
02:06AM 52.4920 4.5470 17° North 236 272 3,300 -480 Descending FlightAware
02:07AM 52.5200 4.5600 16° North 232 267 3,300 -240 Level FlightAware
02:07AM 52.5490 4.5730 15° North 228 262 3,100 -1,020 Descending FlightAware
02:08AM 52.5800 4.5880 16° North 226 260 2,400 -1,200 Descending FlightAware
02:08AM 52.5930 4.5980 25° Northeast 228 262 2,200 -840 Descending FlightAware
02:08AM 52.6020 4.6180 53° Northeast 231 266 2,000 -720 Descending FlightAware
02:08AM 52.6040 4.6380 81° East 233 268 1,900 -240 Descending FlightAware
02:09AM 52.6050 4.6770 88° East 232 267 1,900  Level FlightAware
02:09AM 52.5990 4.7140 105° East 215 247 1,900  Level FlightAware
02:09AM 52.5860 4.7300 143° Southeast 211 243 1,900  Level FlightAware
02:10AM 52.5750 4.7340 168° South 200 230 1,900  Level FlightAware
02:10AM 52.5520 4.7330 182° South 184 212 1,900  Level FlightAware
02:10AM 52.5440 4.7320 184° South 184 212 1,900  Level FlightAware
02:11AM 52.5160 4.7290 184° South 184 212 1,900  Level FlightAware
02:11AM 52.4940 4.7270 183° South 171 197 1,900 -120 Level FlightAware
02:12AM 52.4710 4.7250 183° South 155 178 1,800 -540 Descending FlightAware
02:12AM 52.4610 4.7240 183° South 156 180 1,500 -1,080 Descending FlightAware
02:12AM 52.4410 4.7220 183° South 153 176 1,100 -900 Descending FlightAware
02:13AM 52.4220 4.7200 184° South 134 154 700 -780 Descending FlightAware
02:13AM 52.4070 4.7180 185° South 125 144 400 -720 Descending FlightAware
02:14AM 52.3960 4.7180 180° South 127 146 200 -600 Descending FlightAware
02:15AM 52.3680 4.7140 185° South 128 147 -240 Descending FlightAware